Time;durP1;ratioP1;P1;durP2;ratioP2;P2;SDS_P1;SDS_P2;PMS_P1;PMS_P2;Temp;Humidity;BMP_temperature;BMP_pressure;BME280_temperature;BME280_humidity;BME280_pressure;Samples;Min_cycle;Max_cycle;Signal;HPM_P1;HPM_P2
2022/02/15 00:02:03;;;;;;;;;;;;;;;;;;5045716;28;19985;-55
2022/02/15 00:04:32;;;;;;;;;;;;;;;;;;5046216;28;19924;-55
2022/02/15 00:06:57;;;;;;;;;;;;;;;;;;5043796;28;19929;-56
2022/02/15 00:09:23;;;;;;;;;;;;;;;;;;5040333;28;20336;-55
2022/02/15 00:11:48;;;;;;;;;;;;;;;;;;5044274;28;19931;-55
2022/02/15 00:14:14;;;;;;;;;;;;;;;;;;5044576;28;20036;-56
2022/02/15 00:16:39;;;;;;;;;;;;;;;;;;5043474;28;19920;-55
2022/02/15 00:19:05;;;;;;;;;;;;;;;;;;5043792;28;19925;-53
2022/02/15 00:21:30;;;;;;;;;;;;;;;;;;5041585;28;20497;-55
2022/02/15 00:23:56;;;;;;;;;;;;;;;;;;5045155;28;20333;-56
2022/02/15 00:26:21;;;;;;;;;;;;;;;;;;5026761;28;19917;-55
2022/02/15 00:28:47;;;;;;;;;;;;;;;;;;5026414;28;19932;-55
2022/02/15 00:31:12;;;;;;;;;;;;;;;;;;5043981;28;20029;-56
2022/02/15 00:33:38;;;;;;;;;;;;;;;;;;5043028;28;19960;-55
2022/02/15 00:36:03;;;;;;;;;;;;;;;;;;5045273;28;19921;-56
2022/02/15 00:38:28;;;;;;;;;;;;;;;;;;5046902;28;19920;-57
2022/02/15 00:40:54;;;;;;;;;;;;;;;;;;5047004;28;20322;-56
2022/02/15 00:43:20;;;;;;;;;;;;;;;;;;5046004;28;20357;-52
2022/02/15 00:45:45;;;;;;;;;;;;;;;;;;5048146;28;19960;-53
2022/02/15 00:48:11;;;;;;;;;;;;;;;;;;5047962;28;19935;-56
2022/02/15 00:50:36;;;;;;;;;;;;;;;;;;5048892;28;20508;-55
2022/02/15 00:53:02;;;;;;;;;;;;;;;;;;5047421;28;19916;-51
2022/02/15 00:55:27;;;;;;;;;;;;;;;;;;5048018;28;20977;-54
2022/02/15 00:57:53;;;;;;;;;;;;;;;;;;5046528;28;19920;-53
2022/02/15 01:00:18;;;;;;;;;;;;;;;;;;5046758;28;19946;-52
2022/02/15 01:02:44;;;;;;;;;;;;;;;;;;5027438;28;20408;-53
2022/02/15 01:05:09;;;;;;;;;;;;;;;;;;5047203;28;19920;-52
2022/02/15 01:07:35;;;;;;;;;;;;;;;;;;5043549;28;19937;-54
2022/02/15 01:10:00;;;;;;;;;;;;;;;;;;5051146;28;19920;-56
2022/02/15 01:12:26;;;;;;;;;;;;;;;;;;5047897;28;20023;-56
2022/02/15 01:14:51;;;;;;;;;;;;;;;;;;5047498;28;20653;-56
2022/02/15 01:17:17;;;;;;;;;;;;;;;;;;5046265;28;19924;-55
2022/02/15 01:19:42;;;;;;;;;;;;;;;;;;5048707;28;19920;-56
2022/02/15 01:22:08;;;;;;;;;;;;;;;;;;5048205;28;20394;-55
2022/02/15 01:24:33;;;;;;;;;;;;;;;;;;5047389;28;20373;-55
2022/02/15 01:26:58;;;;;;;;;;;;;;;;;;5048502;28;20389;-56
2022/02/15 01:29:24;;;;;;;;;;;;;;;;;;5046185;28;20013;-55
2022/02/15 01:31:49;;;;;;;;;;;;;;;;;;5045919;28;20351;-56
2022/02/15 01:34:15;;;;;;;;;;;;;;;;;;5047642;28;19924;-54
2022/02/15 01:36:40;;;;;;;;;;;;;;;;;;5047319;28;19939;-53
2022/02/15 01:39:06;;;;;;;;;;;;;;;;;;5047641;28;20352;-54
2022/02/15 01:41:31;;;;;;;;;;;;;;;;;;5047030;28;19970;-53
2022/02/15 01:43:57;;;;;;;;;;;;;;;;;;5047542;28;19995;-56
2022/02/15 01:46:22;;;;;;;;;;;;;;;;;;5045420;28;20024;-54
2022/02/15 01:48:48;;;;;;;;;;;;;;;;;;5046530;28;20048;-56
2022/02/15 01:51:13;;;;;;;;;;;;;;;;;;5055100;28;19917;-55
2022/02/15 01:53:38;;;;;;;;;;;;;;;;;;5051383;28;19970;-56
2022/02/15 01:56:05;;;;;;;;;;;;;;;;;;5049786;28;20376;-56
2022/02/15 01:58:31;;;;;;;;;;;;;;;;;;5047175;28;19925;-56
2022/02/15 02:00:56;;;;;;;;;;;;;;;;;;5046485;28;19962;-58
2022/02/15 02:03:22;;;;;;;;;;;;;;;;;;5042861;28;19943;-57
2022/02/15 02:05:47;;;;;;;;;;;;;;;;;;5047032;28;19924;-55
2022/02/15 02:08:13;;;;;;;;;;;;;;;;;;5046711;28;19936;-54
2022/02/15 02:10:38;;;;;;;;;;;;;;;;;;5045054;28;20420;-57
2022/02/15 02:13:04;;;;;;;;;;;;;;;;;;5029307;28;20435;-54
2022/02/15 02:15:29;;;;;;;;;;;;;;;;;;5047013;28;19956;-55
2022/02/15 02:17:55;;;;;;;;;;;;;;;;;;5047490;28;19925;-56
2022/02/15 02:20:20;;;;;;;;;;;;;;;;;;5029263;28;19924;-57
2022/02/15 02:22:46;;;;;;;;;;;;;;;;;;5028333;28;20214;-58
2022/02/15 02:25:11;;;;;;;;;;;;;;;;;;5046615;28;19936;-58
2022/02/15 02:27:37;;;;;;;;;;;;;;;;;;5045278;28;21090;-56
2022/02/15 02:30:02;;;;;;;;;;;;;;;;;;5048615;28;20446;-57
2022/02/15 02:32:28;;;;;;;;;;;;;;;;;;5047583;28;19924;-56
2022/02/15 02:34:53;;;;;;;;;;;;;;;;;;5047373;28;19924;-57
2022/02/15 02:37:19;;;;;;;;;;;;;;;;;;5044024;28;19928;-56
2022/02/15 02:39:44;;;;;;;;;;;;;;;;;;5046321;28;20561;-57
2022/02/15 02:42:10;;;;;;;;;;;;;;;;;;5027822;28;19927;-56
2022/02/15 02:44:35;;;;;;;;;;;;;;;;;;5044696;28;20004;-57
2022/02/15 02:47:00;;;;;;;;;;;;;;;;;;5026769;28;19928;-56
2022/02/15 02:49:26;;;;;;;;;;;;;;;;;;5046686;28;20387;-54
2022/02/15 02:51:51;;;;;;;;;;;;;;;;;;5046369;28;19925;-59
2022/02/15 02:54:17;;;;;;;;;;;;;;;;;;5028026;28;19928;-56
2022/02/15 02:56:43;;;;;;;;;;;;;;;;;;5046412;28;20031;-56
2022/02/15 02:59:08;;;;;;;;;;;;;;;;;;5045389;28;19990;-55
2022/02/15 03:01:36;;;;;;;;;;;;;;;;;;5045075;28;20480;-54
2022/02/15 03:04:01;;;;;;;;;;;;;;;;;;5026987;28;19932;-56
2022/02/15 03:06:27;;;;;;;;;;;;;;;;;;5045449;28;19920;-57
2022/02/15 03:08:53;;;;;;;;;;;;;;;;;;5046407;28;20407;-57
2022/02/15 03:11:18;;;;;;;;;;;;;;;;;;5044248;28;19921;-56
2022/02/15 03:13:44;;;;;;;;;;;;;;;;;;5045752;28;19925;-56
2022/02/15 03:16:09;;;;;;;;;;;;;;;;;;5046553;28;19969;-56
2022/02/15 03:18:35;;;;;;;;;;;;;;;;;;5044609;28;19925;-57
2022/02/15 03:21:01;;;;;;;;;;;;;;;;;;5046085;28;20015;-54
2022/02/15 03:23:26;;;;;;;;;;;;;;;;;;5044498;28;20006;-56
2022/02/15 03:25:51;;;;;;;;;;;;;;;;;;5044833;28;19992;-55
2022/02/15 03:28:20;;;;;;;;;;;;;;;;;;5043673;28;20395;-56
2022/02/15 03:30:45;;;;;;;;;;;;;;;;;;5026882;28;20409;-55
2022/02/15 03:33:11;;;;;;;;;;;;;;;;;;5045802;28;19925;-55
2022/02/15 03:35:36;;;;;;;;;;;;;;;;;;5044835;28;19931;-56
2022/02/15 03:38:05;;;;;;;;;;;;;;;;;;5025826;28;19924;-56
2022/02/15 03:43:14;;;;;;;;;;;;;;;;;;5044802;28;19928;-56
2022/02/15 03:45:40;;;;;;;;;;;;;;;;;;5044303;28;19921;-56
2022/02/15 03:48:05;;;;;;;;;;;;;;;;;;5025412;28;20010;-56
2022/02/15 03:50:30;;;;;;;;;;;;;;;;;;5044948;28;19970;-56
2022/02/15 03:52:59;;;;;;;;;;;;;;;;;;5044962;28;20326;-57
2022/02/15 03:55:26;;;;;;;;;;;;;;;;;;5024807;28;20429;-56
2022/02/15 03:57:51;;;;;;;;;;;;;;;;;;5046137;28;19938;-56
2022/02/15 04:00:17;;;;;;;;;;;;;;;;;;5028076;28;19928;-56
2022/02/15 04:02:42;;;;;;;;;;;;;;;;;;5044068;28;20016;-57
2022/02/15 04:05:07;;;;;;;;;;;;;;;;;;5045418;28;19920;-56
2022/02/15 04:07:33;;;;;;;;;;;;;;;;;;5044953;28;19940;-57
2022/02/15 04:09:58;;;;;;;;;;;;;;;;;;5050088;28;19940;-56
2022/02/15 04:12:24;;;;;;;;;;;;;;;;;;5050067;28;20011;-56
2022/02/15 04:14:49;;;;;;;;;;;;;;;;;;5050274;28;19985;-55
2022/02/15 04:17:15;;;;;;;;;;;;;;;;;;5049720;28;19920;-55
2022/02/15 04:19:40;;;;;;;;;;;;;;;;;;5051008;28;20878;-55
2022/02/15 04:22:06;;;;;;;;;;;;;;;;;;5055512;28;20340;-54
2022/02/15 04:24:31;;;;;;;;;;;;;;;;;;5051744;28;19937;-56
2022/02/15 04:26:57;;;;;;;;;;;;;;;;;;5054150;28;19970;-57
2022/02/15 04:29:22;;;;;;;;;;;;;;;;;;5060745;28;19995;-57
2022/02/15 04:31:48;;;;;;;;;;;;;;;;;;5052852;28;19974;-55
2022/02/15 04:34:13;;;;;;;;;;;;;;;;;;5049302;28;20428;-53
2022/02/15 04:36:38;;;;;;;;;;;;;;;;;;5048182;28;21135;-57
2022/02/15 04:39:04;;;;;;;;;;;;;;;;;;5050997;28;19920;-53
2022/02/15 04:41:29;;;;;;;;;;;;;;;;;;5049738;28;19924;-56
2022/02/15 04:43:55;;;;;;;;;;;;;;;;;;5049522;28;19925;-56
2022/02/15 04:46:20;;;;;;;;;;;;;;;;;;5048268;28;19940;-55
2022/02/15 04:48:46;;;;;;;;;;;;;;;;;;5047831;28;19928;-54
2022/02/15 04:51:11;;;;;;;;;;;;;;;;;;5048267;28;20493;-56
2022/02/15 04:53:37;;;;;;;;;;;;;;;;;;5029395;28;20008;-53
2022/02/15 04:56:03;;;;;;;;;;;;;;;;;;5047369;28;19920;-53
2022/02/15 04:58:28;;;;;;;;;;;;;;;;;;5048668;28;20319;-57
2022/02/15 05:00:54;;;;;;;;;;;;;;;;;;5048057;28;20006;-54
2022/02/15 05:03:19;;;;;;;;;;;;;;;;;;5048346;28;19925;-56
2022/02/15 05:05:45;;;;;;;;;;;;;;;;;;5049671;28;19997;-56
2022/02/15 05:08:10;;;;;;;;;;;;;;;;;;5047049;28;20408;-55
2022/02/15 05:10:37;;;;;;;;;;;;;;;;;;5047929;28;19982;-56
2022/02/15 05:13:08;;;;;;;;;;;;;;;;;;5048755;28;19920;-56
2022/02/15 05:15:33;;;;;;;;;;;;;;;;;;5027773;28;19921;-54
2022/02/15 05:17:59;;;;;;;;;;;;;;;;;;5047619;28;20407;-56
2022/02/15 05:20:24;;;;;;;;;;;;;;;;;;5047420;28;20297;-57
2022/02/15 05:22:51;;;;;;;;;;;;;;;;;;5046328;28;20602;-56
2022/02/15 05:25:17;;;;;;;;;;;;;;;;;;5046419;28;19944;-56
2022/02/15 05:27:42;;;;;;;;;;;;;;;;;;5050227;28;19929;-54
2022/02/15 05:30:08;;;;;;;;;;;;;;;;;;5049141;28;19939;-56
2022/02/15 05:32:33;;;;;;;;;;;;;;;;;;5047392;28;20281;-55
2022/02/15 05:34:59;;;;;;;;;;;;;;;;;;5048034;28;20058;-57
2022/02/15 05:37:24;;;;;;;;;;;;;;;;;;5045700;28;20027;-57
2022/02/15 05:39:50;;;;;;;;;;;;;;;;;;5047593;28;19925;-56
2022/02/15 05:42:15;;;;;;;;;;;;;;;;;;5047356;28;19968;-56
2022/02/15 05:44:40;;;;;;;;;;;;;;;;;;5047208;28;20950;-57
2022/02/15 05:47:06;;;;;;;;;;;;;;;;;;5047216;28;20421;-56
2022/02/15 05:50:49;;;;;;;;;;;;;;;;;;5047946;28;20381;-57
2022/02/15 05:52:16;;;;;;;;;;;;;;;;;;5045984;28;19968;-56
2022/02/15 05:54:42;;;;;;;;;;;;;;;;;;5048050;28;20025;-56
2022/02/15 05:57:07;;;;;;;;;;;;;;;;;;5046306;28;19921;-55
2022/02/15 05:59:33;;;;;;;;;;;;;;;;;;5047710;28;19925;-57
2022/02/15 06:01:59;;;;;;;;;;;;;;;;;;5047810;28;19982;-55
2022/02/15 06:04:24;;;;;;;;;;;;;;;;;;5047660;28;19921;-57
2022/02/15 06:06:50;;;;;;;;;;;;;;;;;;5029020;28;19920;-56
2022/02/15 06:09:15;;;;;;;;;;;;;;;;;;5048307;28;19931;-56
2022/02/15 06:11:40;;;;;;;;;;;;;;;;;;5047271;28;19970;-56
2022/02/15 06:14:06;;;;;;;;;;;;;;;;;;5049165;28;19998;-56
2022/02/15 06:16:31;;;;;;;;;;;;;;;;;;5047252;28;20031;-57
2022/02/15 06:18:59;;;;;;;;;;;;;;;;;;5048232;28;19924;-57
2022/02/15 06:21:25;;;;;;;;;;;;;;;;;;5046620;28;19927;-56
2022/02/15 06:23:51;;;;;;;;;;;;;;;;;;5049002;28;19921;-56
2022/02/15 06:26:16;;;;;;;;;;;;;;;;;;5047891;28;19925;-56
2022/02/15 06:28:41;;;;;;;;;;;;;;;;;;5045879;28;20760;-54
2022/02/15 06:31:07;;;;;;;;;;;;;;;;;;5048199;28;19978;-56
2022/02/15 06:33:34;;;;;;;;;;;;;;;;;;5046692;28;19927;-55
2022/02/15 06:36:00;;;;;;;;;;;;;;;;;;5047205;28;19947;-57
2022/02/15 06:38:25;;;;;;;;;;;;;;;;;;5046042;28;20366;-55
2022/02/15 06:40:51;;;;;;;;;;;;;;;;;;5045926;28;20400;-56
2022/02/15 06:43:16;;;;;;;;;;;;;;;;;;5046741;28;20381;-53
2022/02/15 06:45:41;;;;;;;;;;;;;;;;;;5045602;28;19925;-56
2022/02/15 06:48:07;;;;;;;;;;;;;;;;;;5024412;28;20381;-57
2022/02/15 06:50:32;;;;;;;;;;;;;;;;;;5026638;28;21845;-54
2022/02/15 06:52:58;;;;;;;;;;;;;;;;;;5025797;28;19920;-58
2022/02/15 06:55:23;;;;;;;;;;;;;;;;;;5025888;28;19939;-54
2022/02/15 06:57:49;;;;;;;;;;;;;;;;;;5025804;28;20015;-55
2022/02/15 07:00:14;;;;;;;;;;;;;;;;;;5026851;28;19963;-56
2022/02/15 07:02:40;;;;;;;;;;;;;;;;;;5025776;28;19963;-57
2022/02/15 07:05:05;;;;;;;;;;;;;;;;;;5026040;28;19925;-55
2022/02/15 07:07:32;;;;;;;;;;;;;;;;;;5025406;28;19979;-57
2022/02/15 07:09:57;;;;;;;;;;;;;;;;;;5026756;28;20020;-57
2022/02/15 07:12:23;;;;;;;;;;;;;;;;;;5025560;28;19927;-57
2022/02/15 07:14:49;;;;;;;;;;;;;;;;;;5026006;28;20011;-58
2022/02/15 07:17:14;;;;;;;;;;;;;;;;;;5026270;28;19921;-58
2022/02/15 07:19:40;;;;;;;;;;;;;;;;;;5025520;28;20028;-57
2022/02/15 07:22:06;;;;;;;;;;;;;;;;;;5026057;28;19956;-57
2022/02/15 07:24:32;;;;;;;;;;;;;;;;;;5026599;28;20254;-57
2022/02/15 07:26:57;;;;;;;;;;;;;;;;;;5023763;28;19917;-56
2022/02/15 07:29:23;;;;;;;;;;;;;;;;;;5024441;28;20401;-56
2022/02/15 07:31:48;;;;;;;;;;;;;;;;;;5025615;28;19921;-57
2022/02/15 07:34:14;;;;;;;;;;;;;;;;;;5024783;28;20657;-55
2022/02/15 07:36:39;;;;;;;;;;;;;;;;;;5025019;28;20353;-56
2022/02/15 07:39:05;;;;;;;;;;;;;;;;;;5025408;28;21651;-56
2022/02/15 07:41:30;;;;;;;;;;;;;;;;;;5023631;28;20305;-56
2022/02/15 07:43:56;;;;;;;;;;;;;;;;;;5025518;28;19955;-57
2022/02/15 07:46:22;;;;;;;;;;;;;;;;;;5023603;28;19925;-56
2022/02/15 07:48:47;;;;;;;;;;;;;;;;;;5025223;28;19982;-54
2022/02/15 07:51:13;;;;;;;;;;;;;;;;;;5026858;28;19925;-57
2022/02/15 07:53:38;;;;;;;;;;;;;;;;;;5026391;28;19920;-57
2022/02/15 07:56:03;;;;;;;;;;;;;;;;;;5022210;28;19932;-56
2022/02/15 07:58:29;;;;;;;;;;;;;;;;;;5025604;28;19921;-54
2022/02/15 08:00:54;;;;;;;;;;;;;;;;;;5026962;28;19932;-56
2022/02/15 08:03:20;;;;;;;;;;;;;;;;;;5023841;28;20384;-56
2022/02/15 08:05:45;;;;;;;;;;;;;;;;;;5024738;28;19974;-55
2022/02/15 08:08:11;;;;;;;;;;;;;;;;;;5024916;28;19936;-55
2022/02/15 08:10:37;;;;;;;;;;;;;;;;;;5024033;28;19932;-55
2022/02/15 08:13:03;;;;;;;;;;;;;;;;;;5025615;28;19928;-55
2022/02/15 08:15:30;;;;;;;;;;;;;;;;;;5024709;28;19924;-56
2022/02/15 08:17:56;;;;;;;;;;;;;;;;;;5024840;28;19976;-54
2022/02/15 08:20:21;;;;;;;;;;;;;;;;;;5025362;28;19924;-54
2022/02/15 08:22:47;;;;;;;;;;;;;;;;;;5024054;28;20468;-56
2022/02/15 08:25:12;;;;;;;;;;;;;;;;;;5023823;28;19932;-54
2022/02/15 08:27:38;;;;;;;;;;;;;;;;;;5023107;28;19994;-53
2022/02/15 08:30:03;;;;;;;;;;;;;;;;;;5025221;28;20028;-56
2022/02/15 08:32:29;;;;;;;;;;;;;;;;;;5024215;28;19925;-55
2022/02/15 08:34:54;;;;;;;;;;;;;;;;;;5039866;28;19927;-56
2022/02/15 08:37:20;;;;;;;;;;;;;;;;;;5046644;28;19932;-53
2022/02/15 08:39:46;;;;;;;;;;;;;;;;;;5048599;28;20254;-54
2022/02/15 08:42:11;;;;;;;;;;;;;;;;;;5052619;28;19987;-56
2022/02/15 08:44:37;;;;;;;;;;;;;;;;;;5049393;28;19925;-53
2022/02/15 08:47:02;;;;;;;;;;;;;;;;;;5043365;28;19979;-56
2022/02/15 08:49:28;;;;;;;;;;;;;;;;;;5024503;28;19920;-57
2022/02/15 08:51:53;;;;;;;;;;;;;;;;;;5045449;28;20391;-53
2022/02/15 08:54:19;;;;;;;;;;;;;;;;;;5044829;28;20378;-53
2022/02/15 08:56:44;;;;;;;;;;;;;;;;;;5045815;28;20000;-55
2022/02/15 08:59:10;;;;;;;;;;;;;;;;;;5029461;28;19920;-53
2022/02/15 09:01:35;;;;;;;;;;;;;;;;;;5047311;28;20100;-56
2022/02/15 09:04:01;;;;;;;;;;;;;;;;;;5049071;28;20011;-56
2022/02/15 09:06:26;;;;;;;;;;;;;;;;;;5046810;28;20316;-56
2022/02/15 09:08:51;;;;;;;;;;;;;;;;;;5047808;28;19956;-56
2022/02/15 09:11:17;;;;;;;;;;;;;;;;;;5049581;28;19921;-54
2022/02/15 09:13:42;;;;;;;;;;;;;;;;;;5039548;28;19977;-56
2022/02/15 09:16:08;;;;;;;;;;;;;;;;;;5048229;28;19971;-54
2022/02/15 09:18:34;;;;;;;;;;;;;;;;;;5047950;28;19927;-56
2022/02/15 09:20:59;;;;;;;;;;;;;;;;;;5048744;28;20007;-56
2022/02/15 09:23:25;;;;;;;;;;;;;;;;;;5025888;28;20148;-56
2022/02/15 09:25:50;;;;;;;;;;;;;;;;;;5029234;28;19975;-54
2022/02/15 09:28:16;;;;;;;;;;;;;;;;;;5026420;28;19932;-55
2022/02/15 09:30:41;;;;;;;;;;;;;;;;;;5027744;28;19949;-56
2022/02/15 09:33:07;;;;;;;;;;;;;;;;;;5029396;28;19921;-57
2022/02/15 09:35:32;;;;;;;;;;;;;;;;;;5027968;28;19925;-54
2022/02/15 09:37:57;;;;;;;;;;;;;;;;;;5027743;28;19987;-57
2022/02/15 09:40:23;;;;;;;;;;;;;;;;;;5025672;28;19924;-53
2022/02/15 09:42:48;;;;;;;;;;;;;;;;;;5027976;28;19939;-54
2022/02/15 09:45:14;;;;;;;;;;;;;;;;;;5028820;28;19944;-55
2022/02/15 09:47:42;;;;;;;;;;;;;;;;;;5024587;28;19956;-56
2022/02/15 09:50:07;;;;;;;;;;;;;;;;;;5029082;28;19932;-56
2022/02/15 09:52:33;;;;;;;;;;;;;;;;;;5027328;28;19924;-56
2022/02/15 09:54:58;;;;;;;;;;;;;;;;;;5029294;28;20278;-56
2022/02/15 09:57:24;;;;;;;;;;;;;;;;;;5027069;28;20103;-56
2022/02/15 09:59:50;;;;;;;;;;;;;;;;;;5028123;28;20282;-56
2022/02/15 10:02:15;;;;;;;;;;;;;;;;;;5027201;28;19925;-54
2022/02/15 10:04:41;;;;;;;;;;;;;;;;;;5026049;28;19943;-56
2022/02/15 10:07:07;;;;;;;;;;;;;;;;;;5026893;28;19955;-54
2022/02/15 10:09:32;;;;;;;;;;;;;;;;;;5027135;28;19967;-55
2022/02/15 10:11:57;;;;;;;;;;;;;;;;;;5028808;28;19921;-53
2022/02/15 10:14:23;;;;;;;;;;;;;;;;;;5025485;28;19975;-55
2022/02/15 10:16:48;;;;;;;;;;;;;;;;;;5029563;28;19921;-56
2022/02/15 10:19:14;;;;;;;;;;;;;;;;;;5027336;28;20352;-54
2022/02/15 10:21:40;;;;;;;;;;;;;;;;;;5026774;28;19921;-55
2022/02/15 10:24:05;;;;;;;;;;;;;;;;;;5027717;28;21069;-55
2022/02/15 10:26:32;;;;;;;;;;;;;;;;;;5027126;28;20878;-56
2022/02/15 10:28:57;;;;;;;;;;;;;;;;;;5028275;28;20325;-55
2022/02/15 10:31:23;;;;;;;;;;;;;;;;;;5027396;28;20286;-56
2022/02/15 10:33:50;;;;;;;;;;;;;;;;;;5026641;28;19921;-56
2022/02/15 10:36:15;;;;;;;;;;;;;;;;;;5025995;28;20400;-54
2022/02/15 10:38:41;;;;;;;;;;;;;;;;;;5025593;28;19932;-56
2022/02/15 10:41:06;;;;;;;;;;;;;;;;;;5026756;28;19931;-54
2022/02/15 10:43:32;;;;;;;;;;;;;;;;;;5025575;28;19936;-57
2022/02/15 10:45:57;;;;;;;;;;;;;;;;;;5026966;28;20077;-57
2022/02/15 10:48:23;;;;;;;;;;;;;;;;;;5025953;28;19929;-56
2022/02/15 10:50:48;;;;;;;;;;;;;;;;;;5026611;28;19925;-56
2022/02/15 10:53:14;;;;;;;;;;;;;;;;;;5027710;28;19921;-56
2022/02/15 10:55:39;;;;;;;;;;;;;;;;;;5026736;28;19936;-56
2022/02/15 10:58:04;;;;;;;;;;;;;;;;;;5024417;28;19925;-56
2022/02/15 11:00:30;;;;;;;;;;;;;;;;;;5025775;28;19921;-56
2022/02/15 11:02:56;;;;;;;;;;;;;;;;;;5026070;28;19956;-56
2022/02/15 11:05:21;;;;;;;;;;;;;;;;;;5025782;28;20386;-56
2022/02/15 11:07:47;;;;;;;;;;;;;;;;;;5024934;28;19929;-54
2022/02/15 11:10:13;;;;;;;;;;;;;;;;;;5025223;28;19921;-55
2022/02/15 11:12:38;;;;;;;;;;;;;;;;;;5024364;28;19917;-53
2022/02/15 11:15:04;;;;;;;;;;;;;;;;;;5027862;28;19956;-56
2022/02/15 11:17:31;;;;;;;;;;;;;;;;;;5025001;28;19952;-56
2022/02/15 11:19:57;;;;;;;;;;;;;;;;;;5025562;28;19928;-53
2022/02/15 11:22:22;;;;;;;;;;;;;;;;;;5024082;28;20282;-56
2022/02/15 11:24:48;;;;;;;;;;;;;;;;;;5026066;28;20278;-56
2022/02/15 11:27:14;;;;;;;;;;;;;;;;;;5025977;28;19925;-56
2022/02/15 11:29:39;;;;;;;;;;;;;;;;;;5025571;28;19927;-56
2022/02/15 11:32:05;;;;;;;;;;;;;;;;;;5024848;28;19925;-57
2022/02/15 11:34:30;;;;;;;;;;;;;;;;;;5025147;28;19928;-56
2022/02/15 11:36:56;;;;;;;;;;;;;;;;;;5040663;28;20015;-55
2022/02/15 11:39:22;;;;;;;;;;;;;;;;;;5022700;28;20405;-58
2022/02/15 11:41:47;;;;;;;;;;;;;;;;;;5023102;28;19948;-55
2022/02/15 11:44:14;;;;;;;;;;;;;;;;;;5026041;28;19921;-57
2022/02/15 11:46:43;;;;;;;;;;;;;;;;;;5025615;28;19925;-55
2022/02/15 11:49:08;;;;;;;;;;;;;;;;;;5025360;28;20324;-55
2022/02/15 11:51:34;;;;;;;;;;;;;;;;;;5025616;28;19921;-55
2022/02/15 11:54:01;;;;;;;;;;;;;;;;;;5024101;28;19957;-56
2022/02/15 11:56:27;;;;;;;;;;;;;;;;;;5023590;28;19963;-54
2022/02/15 11:58:57;;;;;;;;;;;;;;;;;;5041052;28;20003;-56
2022/02/15 12:01:22;;;;;;;;;;;;;;;;;;5024812;28;20459;-53
2022/02/15 12:03:49;;;;;;;;;;;;;;;;;;5024588;28;19925;-55
2022/02/15 12:06:15;;;;;;;;;;;;;;;;;;5026955;28;19924;-56
2022/02/15 12:08:40;;;;;;;;;;;;;;;;;;5025257;28;19929;-56
2022/02/15 12:11:05;;;;;;;;;;;;;;;;;;5026219;28;19928;-56
2022/02/15 12:13:31;;;;;;;;;;;;;;;;;;5036416;28;19931;-56
2022/02/15 12:15:56;;;;;;;;;;;;;;;;;;5046457;28;19963;-56
2022/02/15 12:18:22;;;;;;;;;;;;;;;;;;5043274;28;19921;-56
2022/02/15 12:20:47;;;;;;;;;;;;;;;;;;5046482;28;19925;-56
2022/02/15 12:23:13;;;;;;;;;;;;;;;;;;5045484;28;19943;-53
2022/02/15 12:25:38;;;;;;;;;;;;;;;;;;5044285;28;19939;-56
2022/02/15 12:28:03;;;;;;;;;;;;;;;;;;5046491;28;19935;-55
2022/02/15 12:30:29;;;;;;;;;;;;;;;;;;5045791;28;20263;-55
2022/02/15 12:32:54;;;;;;;;;;;;;;;;;;5048554;28;20411;-56
2022/02/15 12:35:20;;;;;;;;;;;;;;;;;;5048770;28;19932;-56
2022/02/15 12:37:47;;;;;;;;;;;;;;;;;;5028357;28;20012;-56
2022/02/15 12:40:12;;;;;;;;;;;;;;;;;;5031554;28;19921;-52
2022/02/15 12:42:38;;;;;;;;;;;;;;;;;;5028337;28;20605;-53
2022/02/15 12:45:04;;;;;;;;;;;;;;;;;;5026830;28;19921;-55
2022/02/15 12:47:29;;;;;;;;;;;;;;;;;;5027395;28;19940;-54
2022/02/15 12:49:55;;;;;;;;;;;;;;;;;;5028883;28;19956;-56
2022/02/15 12:52:20;;;;;;;;;;;;;;;;;;5027918;28;19932;-55
2022/02/15 12:54:46;;;;;;;;;;;;;;;;;;5027670;28;20067;-55
2022/02/15 12:57:11;;;;;;;;;;;;;;;;;;5028915;28;20399;-55
2022/02/15 12:59:36;;;;;;;;;;;;;;;;;;5029530;28;19947;-56
2022/02/15 13:02:08;;;;;;;;;;;;;;;;;;5027993;28;20306;-54
2022/02/15 13:04:34;;;;;;;;;;;;;;;;;;5027838;28;20337;-55
2022/02/15 13:06:59;;;;;;;;;;;;;;;;;;5026836;28;19932;-56
2022/02/15 13:09:24;;;;;;;;;;;;;;;;;;5029020;28;19933;-55
2022/02/15 13:11:50;;;;;;;;;;;;;;;;;;5028501;28;19929;-55
2022/02/15 13:14:15;;;;;;;;;;;;;;;;;;5027844;28;19978;-55
2022/02/15 13:16:41;;;;;;;;;;;;;;;;;;5029077;28;19920;-55
2022/02/15 13:19:06;;;;;;;;;;;;;;;;;;5049154;28;19927;-55
2022/02/15 13:21:34;;;;;;;;;;;;;;;;;;5046981;28;19924;-51
2022/02/15 13:24:00;;;;;;;;;;;;;;;;;;5046912;28;20316;-52
2022/02/15 13:26:26;;;;;;;;;;;;;;;;;;5046978;28;19925;-52
2022/02/15 13:28:51;;;;;;;;;;;;;;;;;;5045447;28;19928;-52
2022/02/15 13:31:17;;;;;;;;;;;;;;;;;;5047669;28;20015;-54
2022/02/15 13:33:43;;;;;;;;;;;;;;;;;;5026399;28;19974;-54
2022/02/15 13:36:10;;;;;;;;;;;;;;;;;;5028866;28;19929;-54
2022/02/15 13:38:36;;;;;;;;;;;;;;;;;;5024841;28;19924;-54
2022/02/15 13:41:02;;;;;;;;;;;;;;;;;;5027386;28;19917;-55
2022/02/15 13:43:28;;;;;;;;;;;;;;;;;;5025148;28;19921;-55
2022/02/15 13:45:53;;;;;;;;;;;;;;;;;;5027527;28;19928;-55
2022/02/15 13:48:19;;;;;;;;;;;;;;;;;;5017004;28;20278;-56
2022/02/15 13:50:44;;;;;;;;;;;;;;;;;;5026831;28;19924;-51
2022/02/15 13:53:10;;;;;;;;;;;;;;;;;;5027115;28;19925;-54
2022/02/15 13:55:35;;;;;;;;;;;;;;;;;;5026226;28;19936;-55
2022/02/15 13:58:00;;;;;;;;;;;;;;;;;;5027509;28;19932;-53
2022/02/15 14:00:26;;;;;;;;;;;;;;;;;;5048058;28;20430;-54
2022/02/15 14:02:52;;;;;;;;;;;;;;;;;;5027635;28;19969;-55
2022/02/15 14:05:17;;;;;;;;;;;;;;;;;;5049360;28;20825;-54
2022/02/15 14:07:43;;;;;;;;;;;;;;;;;;5025418;28;19940;-56
2022/02/15 14:10:08;;;;;;;;;;;;;;;;;;5026365;28;19921;-53
2022/02/15 14:12:43;;;;;;;;;;;;;;;;;;5026580;28;20062;-55
2022/02/15 14:15:08;;;;;;;;;;;;;;;;;;5027336;28;20020;-54
2022/02/15 14:17:45;;;;;;;;;;;;;;;;;;5026555;28;19940;-51
2022/02/15 14:20:11;;;;;;;;;;;;;;;;;;5027275;28;19947;-55
2022/02/15 14:22:36;;;;;;;;;;;;;;;;;;5026167;28;19926;-55
2022/02/15 14:25:02;;;;;;;;;;;;;;;;;;5026898;28;19933;-54
2022/02/15 14:27:27;;;;;;;;;;;;;;;;;;5026676;28;20066;-55
2022/02/15 14:29:53;;;;;;;;;;;;;;;;;;5026920;28;19972;-55
2022/02/15 14:32:18;;;;;;;;;;;;;;;;;;5022889;28;19999;-55
2022/02/15 14:34:44;;;;;;;;;;;;;;;;;;5026320;28;19936;-55
2022/02/15 14:37:09;;;;;;;;;;;;;;;;;;5025744;28;19921;-54
2022/02/15 14:39:35;;;;;;;;;;;;;;;;;;5024448;28;19921;-55
2022/02/15 14:42:06;;;;;;;;;;;;;;;;;;5026119;28;19925;-55
2022/02/15 14:44:31;;;;;;;;;;;;;;;;;;5025528;28;20267;-52
2022/02/15 14:46:57;;;;;;;;;;;;;;;;;;5027746;28;19951;-56
2022/02/15 14:49:22;;;;;;;;;;;;;;;;;;5023093;28;19929;-54
2022/02/15 14:51:48;;;;;;;;;;;;;;;;;;5027266;28;20011;-55
2022/02/15 14:54:13;;;;;;;;;;;;;;;;;;5023878;28;19978;-55
2022/02/15 14:56:39;;;;;;;;;;;;;;;;;;5023484;28;20028;-55
2022/02/15 14:59:04;;;;;;;;;;;;;;;;;;5026335;28;20071;-56
2022/02/15 15:01:30;;;;;;;;;;;;;;;;;;5025796;28;19918;-54
2022/02/15 15:03:55;;;;;;;;;;;;;;;;;;5026660;28;19925;-52
2022/02/15 15:06:21;;;;;;;;;;;;;;;;;;5059793;28;19954;-55
2022/02/15 15:08:46;;;;;;;;;;;;;;;;;;5045005;28;20010;-54
2022/02/15 15:11:12;;;;;;;;;;;;;;;;;;5026657;28;19947;-53
2022/02/15 15:13:37;;;;;;;;;;;;;;;;;;5044335;28;20754;-55
2022/02/15 15:16:03;;;;;;;;;;;;;;;;;;5025619;28;19924;-55
2022/02/15 15:18:28;;;;;;;;;;;;;;;;;;5044007;28;20599;-55
2022/02/15 15:20:54;;;;;;;;;;;;;;;;;;5062114;28;19927;-54
2022/02/15 15:23:19;;;;;;;;;;;;;;;;;;5044208;28;19981;-54
2022/02/15 15:25:45;;;;;;;;;;;;;;;;;;5045196;28;19935;-53
2022/02/15 15:28:10;;;;;;;;;;;;;;;;;;5026505;28;19966;-54
2022/02/15 15:30:36;;;;;;;;;;;;;;;;;;5044853;28;19943;-53
2022/02/15 15:33:02;;;;;;;;;;;;;;;;;;5044490;28;20297;-53
2022/02/15 15:35:27;;;;;;;;;;;;;;;;;;5044291;28;20026;-55
2022/02/15 15:37:53;;;;;;;;;;;;;;;;;;5045438;28;19927;-54
2022/02/15 15:40:19;;;;;;;;;;;;;;;;;;5044617;28;19982;-55
2022/02/15 15:42:46;;;;;;;;;;;;;;;;;;5045288;28;20604;-55
2022/02/15 15:45:12;;;;;;;;;;;;;;;;;;5044563;28;20034;-54
2022/02/15 15:47:37;;;;;;;;;;;;;;;;;;5043525;28;20393;-55
2022/02/15 15:50:03;;;;;;;;;;;;;;;;;;5043960;28;19925;-54
2022/02/15 15:52:28;;;;;;;;;;;;;;;;;;5045889;28;19927;-55
2022/02/15 15:54:54;;;;;;;;;;;;;;;;;;5028785;28;20014;-54
2022/02/15 15:57:19;;;;;;;;;;;;;;;;;;5043916;28;19924;-55
2022/02/15 15:59:45;;;;;;;;;;;;;;;;;;5045698;28;20057;-55
2022/02/15 16:02:10;;;;;;;;;;;;;;;;;;5044678;28;19948;-56
2022/02/15 16:04:36;;;;;;;;;;;;;;;;;;5042285;28;19925;-55
2022/02/15 16:07:01;;;;;;;;;;;;;;;;;;5045856;28;19932;-55
2022/02/15 16:09:27;;;;;;;;;;;;;;;;;;5047905;28;20357;-55
2022/02/15 16:11:52;;;;;;;;;;;;;;;;;;5052245;28;19971;-54
2022/02/15 16:14:18;;;;;;;;;;;;;;;;;;5051329;28;20070;-53
2022/02/15 16:16:43;;;;;;;;;;;;;;;;;;5048269;28;20035;-55
2022/02/15 16:19:09;;;;;;;;;;;;;;;;;;5049180;28;19920;-54
2022/02/15 16:21:34;;;;;;;;;;;;;;;;;;5048381;28;19921;-52
2022/02/15 16:24:00;;;;;;;;;;;;;;;;;;5031569;28;19967;-56
2022/02/15 16:26:25;;;;;;;;;;;;;;;;;;5047104;28;19925;-55
2022/02/15 16:28:51;;;;;;;;;;;;;;;;;;5048914;28;20032;-56
2022/02/15 16:31:16;;;;;;;;;;;;;;;;;;5049461;28;19927;-56
2022/02/15 16:33:42;;;;;;;;;;;;;;;;;;5049573;28;20024;-57
2022/02/15 16:36:16;;;;;;;;;;;;;;;;;;5047469;28;20013;-56
2022/02/15 16:38:42;;;;;;;;;;;;;;;;;;5049190;28;20019;-56